Time;durP1;ratioP1;P1;durP2;ratioP2;P2;SDS_P1;SDS_P2;PMS_P1;PMS_P2;Temp;Humidity;BMP_temperature;BMP_pressure;BME280_temperature;BME280_humidity;BME280_pressure;Samples;Min_cycle;Max_cycle;Signal;HPM_P1;HPM_P2
2023/08/21 00:02:02;;;;;;;12.25;6.95;;;;;;;21.09;62.36;99512.81;6288128;22;20007;-87
2023/08/21 00:04:27;;;;;;;10.98;7.22;;;;;;;21.01;62.01;99507.41;6288305;22;20007;-87
2023/08/21 00:06:53;;;;;;;11.40;6.78;;;;;;;21.05;62.47;99517.34;6288205;22;20030;-88
2023/08/21 00:09:18;;;;;;;12.85;8.35;;;;;;;20.99;62.85;99521.41;6287167;22;20068;-87
2023/08/21 00:11:44;;;;;;;13.20;7.90;;;;;;;20.97;62.37;99516.28;6287905;22;20006;-88
2023/08/21 00:14:09;;;;;;;18.25;8.00;;;;;;;20.95;62.94;99518.53;6288094;22;19998;-86
2023/08/21 00:16:35;;;;;;;13.55;7.88;;;;;;;20.92;62.62;99515.69;6288518;22;20002;-86
2023/08/21 00:19:00;;;;;;;11.23;7.57;;;;;;;20.96;62.69;99527.56;6287219;22;20053;-86
2023/08/21 00:21:26;;;;;;;12.05;7.63;;;;;;;20.87;62.35;99516.66;6287797;22;19999;-86
2023/08/21 00:23:51;;;;;;;12.20;8.00;;;;;;;20.90;62.49;99518.75;6287760;22;20006;-86
2023/08/21 00:26:17;;;;;;;14.07;7.32;;;;;;;20.84;62.86;99517.34;6288080;22;19998;-86
2023/08/21 00:28:42;;;;;;;10.55;7.05;;;;;;;20.89;63.02;99524.56;6288152;22;19999;-85
2023/08/21 00:31:08;;;;;;;13.40;8.32;;;;;;;20.87;63.16;99526.81;6287778;22;20009;-87
2023/08/21 00:33:34;;;;;;;13.43;7.80;;;;;;;20.77;63.13;99520.63;6286635;22;20022;-86
2023/08/21 00:35:59;;;;;;;9.90;7.18;;;;;;;20.81;62.97;99541.84;6288294;22;20041;-88
2023/08/21 00:38:25;;;;;;;11.02;8.15;;;;;;;20.62;62.18;99520.41;6313790;22;19995;-87
2023/08/21 00:40:51;;;;;;;11.07;8.00;;;;;;;20.67;62.24;99528.41;6288268;22;20060;-87
2023/08/21 00:43:16;;;;;;;13.90;8.38;;;;;;;20.68;62.17;99528.09;6288475;22;20041;-87
2023/08/21 00:45:43;;;;;;;15.80;8.25;;;;;;;20.82;62.19;99533.31;6314314;22;19999;-87
2023/08/21 00:48:09;;;;;;;12.38;8.25;;;;;;;20.77;62.88;99530.75;6288273;22;20018;-87
2023/08/21 00:50:35;;;;;;;14.02;8.60;;;;;;;20.72;62.97;99525.50;6288064;22;20006;-86
2023/08/21 00:53:00;;;;;;;12.45;8.30;;;;;;;20.71;63.38;99541.13;6313988;22;20002;-86
2023/08/21 00:55:26;;;;;;;13.50;8.00;;;;;;;20.76;62.41;99549.13;6288249;22;20032;-87
2023/08/21 00:57:53;;;;;;;11.18;7.65;;;;;;;20.77;62.64;99545.25;6287874;22;20007;-86
2023/08/21 01:00:19;;;;;;;12.85;7.68;;;;;;;20.79;62.33;99544.91;6313035;22;20425;-86
2023/08/21 01:02:44;;;;;;;8.80;7.43;;;;;;;20.87;61.73;99548.72;6287001;22;20003;-86
2023/08/21 01:05:11;;;;;;;12.85;7.85;;;;;;;20.83;62.37;99523.16;6287941;22;20006;-87
2023/08/21 01:07:43;;;;;;;11.63;7.85;;;;;;;20.99;61.63;99526.91;6313809;22;20006;-86
2023/08/21 01:10:16;;;;;;;;;;;;;;;21.02;62.68;99541.84;6288882;22;20022;-87
2023/08/21 01:12:57;;;;;;;11.02;7.40;;;;;;;20.94;62.79;99540.78;6312974;22;19938;-87
2023/08/21 01:15:23;;;;;;;;;;;;;;;20.91;62.83;99547.72;6313909;22;20141;-87
2023/08/21 01:17:48;;;;;;;13.65;7.57;;;;;;;20.73;63.96;99535.28;6313670;22;19910;-87
2023/08/21 01:20:14;;;;;;;13.27;8.32;;;;;;;20.66;64.66;99543.22;6288292;22;20002;-87
2023/08/21 01:22:40;;;;;;;11.60;7.55;;;;;;;20.57;63.87;99529.59;6287648;22;20026;-87
2023/08/21 01:25:09;;;;;;;13.60;7.10;;;;;;;20.49;64.22;99527.69;6287974;22;20507;-87
2023/08/21 01:27:35;;;;;;;11.43;7.57;;;;;;;20.38;64.09;99522.59;6289149;22;20003;-87
2023/08/21 01:30:03;;;;;;;13.32;7.82;;;;;;;20.33;65.13;99530.97;6287665;22;20002;-86
2023/08/21 01:33:06;;;;;;;12.20;7.30;;;;;;;20.44;65.14;99556.06;6287665;22;20018;-86
2023/08/21 01:35:33;;;;;;;16.90;8.18;;;;;;;20.25;65.51;99548.22;6313865;22;20416;-87
2023/08/21 01:37:58;;;;;;;13.68;7.63;;;;;;;20.18;65.78;99548.75;6287868;22;19998;-86
2023/08/21 01:40:24;;;;;;;14.25;7.53;;;;;;;20.18;65.83;99554.22;6286530;22;20032;-87
2023/08/21 01:42:50;;;;;;;11.30;7.38;;;;;;;20.14;65.96;99549.75;6288333;22;20007;-86
2023/08/21 01:45:15;;;;;;;15.93;8.55;;;;;;;20.12;66.51;99558.25;6288293;22;20027;-87
2023/08/21 01:47:41;;;;;;;14.15;8.70;;;;;;;20.06;66.56;99551.38;6287538;22;20437;-87
2023/08/21 01:50:07;;;;;;;12.48;8.23;;;;;;;20.09;65.67;99552.66;6287821;22;20003;-87
2023/08/21 01:52:32;;;;;;;13.10;8.70;;;;;;;20.16;66.05;99553.75;6287487;22;19999;-87
2023/08/21 01:54:58;;;;;;;14.00;8.35;;;;;;;20.25;65.59;99553.72;6287628;22;20346;-87
2023/08/21 01:57:23;;;;;;;12.10;8.23;;;;;;;20.26;65.54;99555.31;6287344;22;20003;-86
2023/08/21 01:59:49;;;;;;;12.25;8.85;;;;;;;20.09;66.32;99550.72;6313323;22;20061;-87
2023/08/21 02:02:14;;;;;;;13.35;9.65;;;;;;;19.94;67.03;99529.38;6287491;22;19998;-87
2023/08/21 02:04:40;;;;;;;20.42;11.30;;;;;;;20.02;66.69;99535.97;6287216;22;20005;-88
2023/08/21 02:07:08;;;;;;;22.25;11.45;;;;;;;20.01;66.67;99540.63;6286897;22;19990;-87
2023/08/21 02:09:33;;;;;;;23.52;12.73;;;;;;;20.03;67.28;99551.25;6287537;22;19995;-87
2023/08/21 02:11:59;;;;;;;16.60;10.50;;;;;;;20.00;67.25;99547.22;6287568;22;20003;-87
2023/08/21 02:14:24;;;;;;;20.13;10.45;;;;;;;19.93;66.95;99549.66;6287413;22;19999;-87
2023/08/21 02:16:50;;;;;;;15.27;10.40;;;;;;;19.87;67.21;99543.56;6312625;22;19994;-87
2023/08/21 02:19:15;;;;;;;18.58;9.45;;;;;;;19.86;67.28;99549.34;6287193;22;19998;-87
2023/08/21 02:21:44;;;;;;;17.10;9.63;;;;;;;19.66;67.52;99539.91;6286570;22;20010;-87
2023/08/21 02:24:09;;;;;;;18.17;9.98;;;;;;;19.68;67.74;99538.44;6288836;22;20022;-87
2023/08/21 02:26:35;;;;;;;19.92;10.63;;;;;;;19.78;67.56;99557.25;6339715;22;20003;-87
2023/08/21 02:29:01;;;;;;;14.32;10.13;;;;;;;19.71;67.75;99556.16;6287643;22;20017;-86
2023/08/21 02:31:26;;;;;;;18.23;10.55;;;;;;;19.68;67.59;99552.09;6313946;22;20025;-87
2023/08/21 02:33:52;;;;;;;19.33;10.77;;;;;;;19.65;67.74;99549.22;6292751;22;20071;-87
2023/08/21 02:36:19;;;;;;;17.65;10.77;;;;;;;19.70;68.03;99560.00;6318553;22;20002;-87
2023/08/21 02:38:45;;;;;;;14.73;10.82;;;;;;;19.65;68.03;99549.22;6317557;22;19994;-87
2023/08/21 02:41:11;;;;;;;17.67;11.07;;;;;;;19.51;67.42;99530.31;6291977;22;20459;-87
2023/08/21 02:43:36;;;;;;;16.40;10.82;;;;;;;19.62;67.55;99552.59;6293000;22;20009;-88
2023/08/21 02:46:02;;;;;;;18.98;11.48;;;;;;;19.58;67.96;99549.72;6319273;22;19998;-87
2023/08/21 02:48:27;;;;;;;19.08;11.15;;;;;;;19.62;68.06;99553.41;6293763;22;19990;-87
2023/08/21 02:50:53;;;;;;;20.38;11.15;;;;;;;19.67;67.79;99552.41;6321012;22;20379;-87
2023/08/21 02:53:18;;;;;;;19.27;10.88;;;;;;;19.74;67.08;99559.03;6293830;22;20044;-87
2023/08/21 02:55:44;;;;;;;16.95;10.40;;;;;;;19.69;67.88;99559.16;6293725;22;20008;-87
2023/08/21 02:58:09;;;;;;;14.32;10.40;;;;;;;19.73;67.79;99570.28;6294210;22;19998;-87
2023/08/21 03:00:35;;;;;;;15.45;9.52;;;;;;;19.66;67.61;99562.56;6293579;22;20005;-86
2023/08/21 03:03:00;;;;;;;19.38;10.38;;;;;;;19.64;67.77;99553.09;6293716;22;20421;-87
2023/08/21 03:05:26;;;;;;;18.10;9.25;;;;;;;19.63;68.00;99557.75;6320497;22;19998;-87
2023/08/21 03:07:52;;;;;;;12.27;8.75;;;;;;;19.63;67.96;99565.94;6293718;22;20014;-86
2023/08/21 03:10:18;;;;;;;15.50;8.85;;;;;;;19.62;68.33;99578.00;6294068;22;20361;-87
2023/08/21 03:12:43;;;;;;;11.80;8.30;;;;;;;19.60;67.97;99577.50;6320247;22;19999;-87
2023/08/21 03:15:09;;;;;;;12.57;9.10;;;;;;;19.56;68.21;99577.34;6319382;22;19994;-87
2023/08/21 03:17:34;;;;;;;15.70;8.80;;;;;;;19.55;68.66;99578.50;6294163;22;19998;-87
2023/08/21 03:20:00;;;;;;;16.60;8.63;;;;;;;19.49;68.66;99568.84;6293977;22;20051;-87
2023/08/21 03:22:25;;;;;;;16.85;9.48;;;;;;;19.52;68.82;99583.78;6320064;22;20349;-87
2023/08/21 03:24:51;;;;;;;14.82;9.50;;;;;;;19.38;68.70;99573.84;6293091;22;20379;-87
2023/08/21 03:27:29;;;;;;;12.68;8.48;;;;;;;19.32;68.58;99564.22;6294155;22;20009;-87
2023/08/21 03:29:54;;;;;;;13.13;8.75;;;;;;;19.40;68.29;99570.78;6295995;22;20018;-87
2023/08/21 03:32:20;;;;;;;22.02;8.70;;;;;;;19.42;69.04;99584.91;6294109;22;20022;-87
2023/08/21 03:34:45;;;;;;;12.20;8.60;;;;;;;19.45;69.11;99583.47;6293862;22;20006;-87
2023/08/21 03:37:11;;;;;;;12.38;8.63;;;;;;;19.31;69.30;99580.91;6293197;22;20002;-86
2023/08/21 03:39:39;;;;;;;14.00;8.20;;;;;;;19.27;69.00;99574.47;6293712;22;19999;-87
2023/08/21 03:42:05;;;;;;;15.45;8.55;;;;;;;19.20;69.28;99566.78;6294487;22;20100;-87
2023/08/21 03:44:30;;;;;;;13.70;8.60;;;;;;;19.30;69.62;99590.22;6293497;22;19994;-88
2023/08/21 03:46:56;;;;;;;13.90;8.60;;;;;;;19.34;69.46;99602.09;6319105;22;19998;-87
2023/08/21 03:49:21;;;;;;;11.63;8.68;;;;;;;19.20;69.46;99582.38;6293209;22;20032;-87
2023/08/21 03:51:47;;;;;;;11.70;8.30;;;;;;;19.07;70.12;99578.66;6294049;22;20345;-85
2023/08/21 03:54:13;;;;;;;13.93;8.07;;;;;;;19.10;70.10;99602.59;6318865;22;20079;-86
2023/08/21 03:56:38;;;;;;;20.63;9.30;;;;;;;18.96;70.88;99575.44;6293660;22;20002;-88
2023/08/21 03:59:04;;;;;;;12.10;9.05;;;;;;;18.95;70.46;99588.28;6318411;22;20067;-87
2023/08/21 04:01:29;;;;;;;22.40;10.30;;;;;;;19.11;69.75;99591.34;6293269;22;20494;-88
2023/08/21 04:03:57;;;;;;;16.80;9.38;;;;;;;19.08;70.77;99589.25;6293528;22;19994;-87
2023/08/21 04:06:22;;;;;;;12.95;8.55;;;;;;;19.10;70.67;99597.91;6294292;22;20460;-87
2023/08/21 04:08:48;;;;;;;14.00;8.88;;;;;;;19.08;70.16;99599.38;6318514;22;20043;-86
2023/08/21 04:11:13;;;;;;;14.93;9.80;;;;;;;19.10;70.74;99599.84;6292714;22;20002;-87
2023/08/21 04:13:39;;;;;;;17.55;9.95;;;;;;;19.05;71.07;99598.09;6291990;22;20024;-86
2023/08/21 04:16:08;;;;;;;13.90;9.52;;;;;;;19.08;71.28;99604.81;6318886;22;19998;-86
2023/08/21 04:18:36;;;;;;;17.42;10.75;;;;;;;19.03;70.59;99589.41;6292363;22;20146;-86
2023/08/21 04:21:02;;;;;;;16.48;9.30;;;;;;;19.09;70.57;99603.69;6293415;22;20044;-87
2023/08/21 04:23:27;;;;;;;16.23;9.05;;;;;;;19.05;70.20;99598.09;6292877;22;19994;-86
2023/08/21 04:25:53;;;;;;;17.60;9.23;;;;;;;19.03;70.54;99594.06;6293199;22;20024;-86
2023/08/21 04:28:18;;;;;;;17.63;10.27;;;;;;;19.19;70.11;99614.31;6292110;22;19998;-87
2023/08/21 04:30:44;;;;;;;18.33;10.32;;;;;;;19.27;70.20;99621.69;6292700;22;20010;-86
2023/08/21 04:33:09;;;;;;;16.45;10.75;;;;;;;19.25;70.07;99609.50;6313398;22;20026;-86
2023/08/21 04:35:38;;;;;;;18.25;11.35;;;;;;;19.31;69.95;99608.22;6312594;22;20453;-87
2023/08/21 04:38:04;;;;;;;22.83;11.10;;;;;;;19.39;69.62;99608.22;6287859;22;20498;-87
2023/08/21 04:40:29;;;;;;;16.13;9.27;;;;;;;19.44;69.37;99603.72;6288713;22;19999;-87
2023/08/21 04:42:57;;;;;;;17.65;10.77;;;;;;;19.56;69.15;99612.84;6287774;22;20002;-86
2023/08/21 04:45:25;;;;;;;20.77;10.80;;;;;;;19.59;69.17;99605.97;6288244;22;20014;-88
2023/08/21 04:47:51;;;;;;;17.50;10.73;;;;;;;19.67;68.38;99609.78;6312658;22;19997;-87
2023/08/21 04:50:17;;;;;;;18.00;11.07;;;;;;;19.70;68.33;99607.25;6290991;22;19991;-96
2023/08/21 04:52:43;;;;;;;19.17;11.07;;;;;;;19.81;67.59;99609.66;6295553;22;20003;-96
2023/08/21 04:55:09;;;;;;;18.30;10.27;;;;;;;19.83;67.25;99604.66;6299029;22;20006;-96
2023/08/21 04:57:42;;;;;;;17.50;10.07;;;;;;;19.88;67.42;99612.69;6295608;22;20010;-96
2023/08/21 05:00:10;;;;;;;13.95;9.27;;;;;;;20.05;67.65;99626.31;6299116;22;20013;-95
2023/08/21 05:02:36;;;;;;;15.63;9.82;;;;;;;19.95;66.58;99602.88;6297670;22;19998;-96
2023/08/21 05:05:02;;;;;;;18.60;10.48;;;;;;;20.08;66.26;99608.47;6294850;22;20003;-94
2023/08/21 05:07:30;;;;;;;19.25;10.00;;;;;;;20.22;65.38;99600.06;6294155;22;20049;-94
2023/08/21 05:10:00;;;;;;;19.80;10.85;;;;;;;20.23;66.01;99590.72;6292957;22;20425;-96
2023/08/21 05:12:29;;;;;;;14.20;10.15;;;;;;;20.24;65.69;99589.59;6326498;22;20002;-96
2023/08/21 05:15:03;;;;;;;17.30;9.77;;;;;;;20.50;64.88;99620.38;6303232;22;19986;-96
2023/08/21 05:17:34;;;;;;;14.93;9.00;;;;;;;20.57;64.36;99608.91;6308622;22;19987;-96
2023/08/21 05:20:00;;;;;;;14.63;9.45;;;;;;;20.68;64.29;99604.69;6297165;22;20021;-96
2023/08/21 05:30:15;;;;;;;13.27;9.38;;;;;;;21.28;63.46;99619.13;6366061;22;20022;-95
2023/08/21 05:33:03;;;;;;;18.98;8.45;;;;;;;21.34;62.29;99597.81;6286974;22;20048;-96
2023/08/21 05:35:53;;;;;;;22.65;9.15;;;;;;;21.73;62.21;99628.63;6272210;22;20101;-92
2023/08/21 05:38:42;;;;;;;16.92;8.70;;;;;;;21.67;61.46;99597.88;6308555;22;19979;-96
2023/08/21 05:44:08;;;;;;;19.70;9.25;;;;;;;21.73;60.10;99599.25;6276717;22;20054;-95
2023/08/21 05:46:34;;;;;;;12.20;9.10;;;;;;;21.91;60.63;99608.09;6304023;22;19998;-95
2023/08/21 05:49:07;;;;;;;16.30;8.57;;;;;;;22.13;60.27;99611.59;6268616;22;20012;-94
2023/08/21 05:51:36;;;;;;;13.20;8.35;;;;;;;22.25;59.94;99617.13;6323939;22;19999;-96
2023/08/21 05:54:07;;;;;;;13.43;8.45;;;;;;;22.34;59.93;99606.84;6296787;22;20450;-96
2023/08/21 05:56:33;;;;;;;17.50;8.48;;;;;;;22.47;59.40;99595.88;6293106;22;20061;-94
2023/08/21 06:01:37;;;;;;;17.13;9.57;;;;;;;22.84;58.36;99620.56;6346499;22;20022;-96
2023/08/21 06:04:18;;;;;;;;;;;;;;;22.98;58.09;99629.25;6279864;22;20042;-96
2023/08/21 06:06:58;;;;;;;19.73;9.45;;;;;;;23.00;58.31;99614.03;6358557;22;19906;-96
2023/08/21 06:09:33;;;;;;;16.60;9.15;;;;;;;23.00;57.99;99596.75;6284901;22;20006;-96
2023/08/21 06:12:01;;;;;;;28.75;12.07;;;;;;;23.25;57.63;99621.44;6305517;22;20007;-96
2023/08/21 06:17:28;;;;;;;22.23;9.35;;;;;;;23.42;56.83;99625.88;6384856;22;20025;-96
2023/08/21 06:19:53;;;;;;;17.52;8.73;;;;;;;23.43;56.50;99622.78;6308751;22;20006;-96
2023/08/21 06:22:32;;;;;;;16.42;10.45;;;;;;;23.53;55.85;99614.03;6310484;22;20018;-95
2023/08/21 06:25:15;;;;;;;20.70;8.90;;;;;;;23.69;56.32;99611.31;6331391;22;20002;-96
2023/08/21 06:34:12;;;;;;;17.10;9.25;;;;;;;24.24;54.99;99639.13;6384855;22;20006;-96
2023/08/21 06:37:02;;;;;;;18.45;9.30;;;;;;;24.17;54.45;99614.19;6313424;22;20006;-96
2023/08/21 06:39:40;;;;;;;19.50;10.13;;;;;;;24.35;54.50;99614.63;6336656;22;20014;-96
2023/08/21 06:42:13;;;;;;;23.42;10.18;;;;;;;24.67;53.97;99628.41;6365207;22;20340;-95
2023/08/21 06:48:18;;;;;;;16.65;9.32;;;;;;;25.10;52.62;99624.66;6200604;22;20000;-96
2023/08/21 06:59:06;;;;;;;17.73;9.13;;;;;;;25.60;51.45;99625.75;6308598;22;20012;-96
2023/08/21 07:04:33;;;;;;;;;;;;;;;;;;;;;
2023/08/21 07:07:26;;;;;;;;;;;;;;;26.19;50.45;99654.09;6362716;22;20006;-96
2023/08/21 07:19:05;;;;;;;14.70;5.93;;;;;;;26.70;47.47;99624.56;6420710;22;20025;-95
2023/08/21 07:21:35;;;;;;;23.67;7.28;;;;;;;26.86;47.50;99627.19;6394058;22;20063;-95
2023/08/21 07:24:19;;;;;;;16.23;6.60;;;;;;;27.04;47.47;99619.94;6342372;22;19998;-95
2023/08/21 07:29:20;;;;;;;14.75;6.55;;;;;;;27.32;46.99;99616.00;6328468;22;20092;-96
2023/08/21 07:31:52;;;;;;;11.20;6.88;;;;;;;27.52;46.21;99625.72;6303256;22;20060;-94
2023/08/21 07:34:38;;;;;;;11.95;7.32;;;;;;;27.77;46.26;99633.53;6334311;22;20216;-95
2023/08/21 07:42:43;;;;;;;26.30;15.45;;;;;;;28.18;45.23;99619.72;6291291;22;20041;-95
2023/08/21 07:45:15;;;;;;;10.48;5.90;;;;;;;28.42;44.87;99632.19;6306904;22;20066;-93
2023/08/21 07:47:52;;;;;;;;;;;;;;;;;;;;;
2023/08/21 07:54:01;;;;;;;;;;;;;;;28.92;41.79;99627.03;6212307;23;20016;-94
2023/08/21 07:56:45;;;;;;;14.50;6.60;;;;;;;29.05;41.72;99627.50;6183826;23;19907;-96
2023/08/21 07:59:10;;;;;;;10.48;7.47;;;;;;;29.01;41.31;99601.75;6155979;23;20432;-95
2023/08/21 08:01:44;;;;;;;9.98;5.00;;;;;;;29.18;41.18;99614.94;6243807;22;20014;-95
2023/08/21 08:04:10;;;;;;;9.40;4.80;;;;;;;29.29;38.06;99603.13;6298504;22;20015;-95
2023/08/21 08:06:39;;;;;;;14.18;9.30;;;;;;;29.52;36.88;99602.81;6256616;22;20005;-96
2023/08/21 08:10:05;;;;;;;5.05;3.63;;;;;;;29.54;35.33;99598.44;6310318;22;20048;-96
2023/08/21 08:12:33;;;;;;;4.63;3.50;;;;;;;29.67;34.71;99595.31;6318437;22;20371;-96
2023/08/21 08:15:13;;;;;;;12.80;3.90;;;;;;;29.99;34.08;99601.75;6356369;22;20016;-96
2023/08/21 08:17:54;;;;;;;4.82;3.20;;;;;;;30.11;33.68;99583.09;6335727;22;20070;-96
2023/08/21 08:23:15;;;;;;;7.13;4.25;;;;;;;30.63;33.82;99605.75;6320402;22;20014;-96
2023/08/21 08:39:20;;;;;;;5.47;3.63;;;;;;;30.90;33.49;99596.97;6297966;22;19998;-95
2023/08/21 08:48:42;;;;;;;7.50;4.45;;;;;;;30.99;33.59;99575.13;6299460;22;19999;-96
2023/08/21 08:54:02;;;;;;;4.57;3.30;;;;;;;31.05;32.68;99556.03;6315923;22;20056;-92
2023/08/21 08:56:33;;;;;;;7.30;3.80;;;;;;;31.13;33.05;99561.16;6261696;22;20014;-90
2023/08/21 08:59:04;;;;;;;5.05;3.97;;;;;;;31.22;33.14;99572.63;6308796;22;20068;-89
2023/08/21 09:01:50;;;;;;;6.97;3.63;;;;;;;31.21;32.56;99568.28;6288786;22;20082;-91
2023/08/21 09:04:18;;;;;;;5.18;3.45;;;;;;;31.30;32.38;99553.94;6263159;22;19991;-90
2023/08/21 09:07:24;;;;;;;;;;;;;;;;;;;;;
2023/08/21 09:09:52;;;;;;;5.32;3.38;;;;;;;31.24;31.96;99547.22;6291059;22;20088;-93
2023/08/21 09:13:07;;;;;;;;;;;;;;;;;;;;;
2023/08/21 09:15:36;;;;;;;7.55;4.22;;;;;;;31.44;32.45;99549.50;6313095;22;20019;-91
2023/08/21 09:18:05;;;;;;;9.57;4.05;;;;;;;31.42;32.65;99542.34;6262157;22;20003;-89
2023/08/21 09:21:09;;;;;;;9.70;4.47;;;;;;;31.54;32.48;99548.66;6263002;22;20006;-87
2023/08/21 09:23:40;;;;;;;4.78;3.85;;;;;;;31.78;32.84;99566.41;6240596;23;20004;-89
2023/08/21 09:26:11;;;;;;;5.63;3.35;;;;;;;31.72;32.21;99531.84;6144098;23;20028;-88
2023/08/21 09:28:39;;;;;;;;;;;;;;;31.94;32.06;99558.34;6247277;22;20039;-89
2023/08/21 09:31:16;;;;;;;7.75;3.42;;;;;;;31.78;32.01;99550.50;6283006;22;19906;-92
2023/08/21 09:34:31;;;;;;;;;;;;;;;;;;;;;
2023/08/21 09:37:08;;;;;;;5.50;3.50;;;;;;;31.98;31.58;99536.00;6247087;22;20087;-89
2023/08/21 09:43:11;;;;;;;3.90;3.30;;;;;;;32.10;30.76;99526.41;6125521;23;20583;-89
2023/08/21 09:45:37;;;;;;;4.97;3.28;;;;;;;32.07;30.76;99528.03;6189497;23;20004;-89
2023/08/21 09:48:06;;;;;;;7.45;4.60;;;;;;;32.16;31.50;99528.34;6172627;23;20004;-89
2023/08/21 09:50:46;;;;;;;6.18;4.57;;;;;;;32.21;31.58;99518.75;6223661;23;20359;-90
2023/08/21 09:53:12;;;;;;;8.85;4.07;;;;;;;32.29;30.91;99519.47;6223210;23;20020;-90
2023/08/21 09:55:40;;;;;;;8.98;5.13;;;;;;;32.43;30.68;99534.03;6171488;23;20008;-91
2023/08/21 09:58:08;;;;;;;5.53;3.58;;;;;;;32.34;30.96;99508.66;6175864;23;20065;-90
2023/08/21 10:01:13;;;;;;;8.77;3.75;;;;;;;32.03;30.66;99499.41;6175173;23;20004;-88
2023/08/21 10:03:51;;;;;;;8.43;3.53;;;;;;;32.36;30.32;99520.19;6185929;23;20014;-87
2023/08/21 10:06:20;;;;;;;5.65;3.25;;;;;;;32.42;29.76;99514.97;6184079;22;20081;-89
2023/08/21 10:08:46;;;;;;;6.75;3.67;;;;;;;32.53;30.26;99515.63;6285450;22;20007;-88
2023/08/21 10:11:11;;;;;;;5.72;3.53;;;;;;;32.58;28.94;99518.03;6258564;22;20396;-87
2023/08/21 10:13:38;;;;;;;6.35;3.03;;;;;;;32.49;28.83;99514.88;6254420;22;20011;-90
2023/08/21 10:16:05;;;;;;;6.15;3.33;;;;;;;32.47;28.86;99519.28;6258614;22;20007;-87
2023/08/21 10:18:45;;;;;;;4.07;3.05;;;;;;;32.41;28.43;99500.22;6261358;22;20062;-92
2023/08/21 10:21:43;;;;;;;5.45;3.20;;;;;;;32.46;28.63;99512.13;6291645;22;20003;-89
2023/08/21 10:24:18;;;;;;;3.50;3.00;;;;;;;32.30;28.27;99484.84;6272390;22;20003;-90
2023/08/21 10:26:47;;;;;;;5.93;3.08;;;;;;;32.42;28.84;99507.38;6264195;22;20033;-88
2023/08/21 10:29:15;;;;;;;6.07;2.90;;;;;;;32.37;28.62;99481.97;6260417;22;20018;-89
2023/08/21 10:31:43;;;;;;;5.20;2.85;;;;;;;32.43;28.60;99497.81;6285714;22;20086;-93
2023/08/21 10:34:12;;;;;;;4.70;2.88;;;;;;;32.45;28.16;99516.13;6261850;22;20007;-91
2023/08/21 10:36:47;;;;;;;4.80;3.13;;;;;;;32.57;28.55;99507.28;6262873;22;20429;-90
2023/08/21 10:39:42;;;;;;;6.07;3.63;;;;;;;32.60;28.34;99501.66;6313088;22;20030;-90
2023/08/21 10:42:13;;;;;;;7.55;3.70;;;;;;;32.37;28.35;99468.84;6312016;22;20007;-90
2023/08/21 10:44:59;;;;;;;12.82;4.22;;;;;;;32.55;28.44;99482.59;6264573;22;19999;-92
2023/08/21 10:48:05;;;;;;;10.02;3.10;;;;;;;32.53;28.30;99468.25;6300091;22;20006;-95
2023/08/21 10:56:18;;;;;;;4.78;3.45;;;;;;;32.90;28.23;99477.00;6382286;22;20022;-96
2023/08/21 11:07:45;;;;;;;4.80;3.00;;;;;;;33.11;27.68;99470.38;6356331;22;20044;-96
2023/08/21 11:10:21;;;;;;;4.30;3.25;;;;;;;33.06;28.21;99456.84;6329810;22;20010;-96
2023/08/21 11:12:59;;;;;;;3.63;2.70;;;;;;;33.18;27.83;99468.28;6305236;22;20029;-95
2023/08/21 11:15:27;;;;;;;11.55;3.40;;;;;;;33.14;27.91;99445.22;6299813;22;20023;-96
2023/08/21 11:18:03;;;;;;;7.97;5.28;;;;;;;33.24;27.99;99435.09;6280898;22;20499;-96
2023/08/21 11:20:58;;;;;;;5.32;3.28;;;;;;;33.32;28.01;99428.19;6282394;22;20019;-95
2023/08/21 11:23:50;;;;;;;8.50;3.42;;;;;;;33.25;28.30;99438.69;6293643;22;20070;-96
2023/08/21 11:26:27;;;;;;;5.45;3.30;;;;;;;33.37;28.50;99440.88;6303566;22;20037;-96
2023/08/21 11:29:01;;;;;;;5.85;3.35;;;;;;;33.29;27.71;99420.69;6369316;22;20013;-95
2023/08/21 11:31:29;;;;;;;4.82;3.05;;;;;;;33.34;27.23;99422.19;6348744;22;20006;-95
2023/08/21 11:39:33;;;;;;;5.22;3.70;;;;;;;33.80;27.18;99443.81;6376556;22;20026;-94
2023/08/21 11:41:59;;;;;;;5.18;3.17;;;;;;;33.76;26.87;99442.28;6320765;22;19999;-96
2023/08/21 11:48:05;;;;;;;5.18;3.13;;;;;;;33.77;27.54;99430.69;6386578;22;20037;-95
2023/08/21 11:50:38;;;;;;;4.07;3.22;;;;;;;33.69;27.19;99415.28;6321217;22;20070;-96
2023/08/21 11:53:16;;;;;;;;;;;;;;;;;;;;;
2023/08/21 11:58:30;;;;;;;14.00;8.02;;;;;;;33.86;26.49;99402.22;6175727;22;20001;-96
2023/08/21 12:01:28;;;;;;;4.88;3.70;;;;;;;33.91;26.72;99398.13;6124152;23;20014;-96
2023/08/21 12:03:56;;;;;;;10.00;7.50;;;;;;;33.97;26.44;99405.63;6148212;23;20029;-95
2023/08/21 12:06:32;;;;;;;4.78;3.10;;;;;;;34.08;26.41;99397.03;6102150;23;20039;-95
2023/08/21 12:09:08;;;;;;;6.65;3.50;;;;;;;34.15;26.35;99393.31;6148340;23;20073;-95
2023/08/21 12:12:10;;;;;;;8.50;5.13;;;;;;;34.21;25.86;99386.81;6148499;23;20020;-96
2023/08/21 12:14:58;;;;;;;6.75;3.10;;;;;;;34.31;25.75;99370.25;6243536;22;20080;-96
2023/08/21 12:17:30;;;;;;;8.60;3.40;;;;;;;34.56;25.14;99378.13;6298224;22;20017;-96
2023/08/21 12:22:59;;;;;;;7.50;4.35;;;;;;;35.09;24.79;99395.75;6307852;22;20030;-94
2023/08/21 12:30:42;;;;;;;7.78;4.53;;;;;;;35.14;24.21;99370.06;6202556;22;20025;-96
2023/08/21 12:33:26;;;;;;;8.27;3.72;;;;;;;35.35;23.89;99377.16;6282539;22;20009;-96
2023/08/21 12:35:55;;;;;;;5.10;3.03;;;;;;;35.32;23.39;99374.44;6281100;22;20015;-95
2023/08/21 12:38:20;;;;;;;7.03;3.70;;;;;;;35.51;23.95;99392.38;6250864;22;19997;-95
2023/08/21 12:41:01;;;;;;;4.15;3.50;;;;;;;35.27;23.55;99366.56;6255443;22;19999;-94
2023/08/21 12:43:28;;;;;;;7.88;3.50;;;;;;;35.09;23.36;99378.94;6283638;22;20096;-95
2023/08/21 12:45:55;;;;;;;5.57;3.20;;;;;;;35.05;23.78;99389.44;6128519;22;20040;-94
2023/08/21 13:02:58;;;;;;;9.52;5.22;;;;;;;26.57;61.09;99417.63;6350100;22;20009;-94
2023/08/21 13:05:31;;;;;;;7.40;4.82;;;;;;;26.47;58.20;99420.22;6307057;22;20018;-95
2023/08/21 13:08:00;;;;;;;8.90;5.82;;;;;;;26.35;61.99;99410.22;6362218;22;20337;-93
2023/08/21 13:10:26;;;;;;;10.15;5.45;;;;;;;26.27;61.22;99395.50;6311868;22;20010;-93
2023/08/21 13:12:52;;;;;;;12.25;6.05;;;;;;;26.23;61.56;99382.84;6311869;22;20079;-92
2023/08/21 13:15:31;;;;;;;8.77;4.95;;;;;;;26.38;60.32;99390.16;6315159;22;19998;-96
2023/08/21 13:17:58;;;;;;;6.95;4.72;;;;;;;26.47;58.73;99393.41;6341148;22;20036;-96
2023/08/21 13:20:30;;;;;;;5.10;3.78;;;;;;;26.62;53.09;99383.34;6315399;22;20036;-96
2023/08/21 13:23:10;;;;;;;7.88;4.75;;;;;;;26.99;54.80;99388.91;6312612;22;20002;-96
2023/08/21 13:26:46;;;;;;;;;;;;;;;;;;;;;
2023/08/21 13:29:23;;;;;;;8.90;5.00;;;;;;;27.45;55.39;99390.53;6252141;23;20015;-95
2023/08/21 13:40:12;;;;;;;7.97;4.80;;;;;;;27.71;52.49;99381.28;6195567;22;20024;-95
2023/08/21 13:43:01;;;;;;;7.35;4.53;;;;;;;27.88;51.81;99387.34;6130119;23;20021;-96
2023/08/21 13:45:35;;;;;;;7.95;4.82;;;;;;;27.88;51.49;99373.53;6173763;22;20502;-88
2023/08/21 13:48:08;;;;;;;11.10;4.60;;;;;;;27.97;54.45;99383.09;6120026;23;20002;-89
2023/08/21 13:50:37;;;;;;;20.83;14.68;;;;;;;28.01;58.17;99377.53;6138420;23;20012;-89
2023/08/21 13:53:43;;;;;;;14.93;6.00;;;;;;;27.77;60.14;99362.34;6112131;23;20068;-89
2023/08/21 13:56:11;;;;;;;11.68;7.07;;;;;;;28.08;58.44;99374.03;6076778;23;20010;-88
2023/08/21 13:58:37;;;;;;;13.25;6.40;;;;;;;28.36;55.79;99365.06;6053792;23;20105;-89
2023/08/21 14:01:03;;;;;;;10.43;5.38;;;;;;;28.54;53.85;99354.91;6079233;23;20017;-88
2023/08/21 14:03:41;;;;;;;9.98;5.75;;;;;;;29.05;50.37;99380.75;6068009;23;20005;-88
2023/08/21 14:06:11;;;;;;;12.05;5.18;;;;;;;29.29;51.78;99362.59;6138887;23;20017;-88
2023/08/21 14:08:36;;;;;;;12.13;5.35;;;;;;;29.39;47.65;99342.38;6113170;23;20036;-88
2023/08/21 14:11:02;;;;;;;11.85;5.18;;;;;;;29.64;52.06;99351.91;6110295;23;20032;-89
2023/08/21 14:13:28;;;;;;;17.70;6.10;;;;;;;29.85;53.10;99348.31;6109315;23;20009;-89
2023/08/21 14:15:53;;;;;;;12.45;5.50;;;;;;;30.02;53.74;99350.25;6108425;23;20009;-89
2023/08/21 14:18:19;;;;;;;8.65;5.00;;;;;;;30.26;50.40;99348.59;6108936;23;20004;-89
2023/08/21 14:20:45;;;;;;;13.40;7.55;;;;;;;30.51;51.26;99350.50;6109801;23;20012;-89
2023/08/21 14:23:10;;;;;;;20.98;6.38;;;;;;;30.69;52.68;99345.63;6133700;22;20001;-89